createdAt,value
2022-08-01T00:00:02.419Z,101756.53
2022-08-01T00:02:29.392Z,101754.88
2022-08-01T00:04:55.944Z,101747.53
2022-08-01T00:07:22.383Z,101751.25
2022-08-01T00:09:49.200Z,101758.34
2022-08-01T00:12:15.694Z,101758.44
2022-08-01T00:14:42.130Z,101762.91
2022-08-01T00:17:08.601Z,101761.31
2022-08-01T00:19:35.182Z,101760.84
2022-08-01T00:22:01.729Z,101756.63
2022-08-01T00:24:28.184Z,101757.38
2022-08-01T00:26:54.627Z,101761.81
2022-08-01T00:30:09.559Z,101768.41
2022-08-01T00:32:08.373Z,101760.34
2022-08-01T00:34:35.049Z,101756.88
2022-08-01T00:37:01.578Z,101763.97
2022-08-01T00:39:28.078Z,101763.97
2022-08-01T00:42:07.883Z,101766.81
2022-08-01T00:44:35.362Z,101765.03
2022-08-01T00:47:02.461Z,101756.41
2022-08-01T00:49:29.395Z,101761.91
2022-08-01T00:51:56.356Z,101759.59
2022-08-01T00:54:24.783Z,101758.75
2022-08-01T00:56:51.301Z,101754.31
2022-08-01T00:59:18.821Z,101757.81
2022-08-01T01:01:47.093Z,101772.69
2022-08-01T01:04:17.303Z,101778.34
2022-08-01T01:06:58.891Z,101774.97
2022-08-01T01:09:43.996Z,101773.91
2022-08-01T01:12:16.786Z,101768.72
2022-08-01T01:15:02.086Z,101761.63
2022-08-01T01:17:51.390Z,101768.84
2022-08-01T01:20:19.581Z,101759.84
2022-08-01T01:23:04.741Z,101765.22
2022-08-01T01:25:59.496Z,101761.75
2022-08-01T01:28:45.145Z,101763.56
2022-08-01T01:31:14.050Z,101761.97
2022-08-01T01:33:47.010Z,101768.00
2022-08-01T01:36:17.138Z,101757.78
2022-08-01T01:38:46.416Z,101756.09
2022-08-01T01:41:15.214Z,101761.25
2022-08-01T01:43:43.249Z,101757.78
2022-08-01T01:46:11.755Z,101754.28
2022-08-01T01:48:39.820Z,101763.19
2022-08-01T01:51:07.637Z,101764.13
2022-08-01T01:53:35.878Z,101765.91
2022-08-01T01:56:04.230Z,101759.94
2022-08-01T01:58:33.995Z,101770.50
2022-08-01T02:01:03.595Z,101771.19
2022-08-01T02:03:32.417Z,101764.13
2022-08-01T02:06:00.172Z,101765.31
2022-08-01T02:08:28.641Z,101773.47
2022-08-01T02:11:17.380Z,101772.63
2022-08-01T02:13:45.037Z,101769.13
2022-08-01T02:16:12.760Z,101766.50
2022-08-01T02:18:39.819Z,101762.81
2022-08-01T02:21:10.758Z,101769.03
2022-08-01T02:23:38.328Z,101765.66
2022-08-01T02:26:14.502Z,101767.34
2022-08-01T02:29:14.317Z,101774.31
2022-08-01T02:31:45.989Z,101770.34
2022-08-01T02:34:16.682Z,101774.00
2022-08-01T02:36:45.643Z,101772.00
2022-08-01T02:39:17.229Z,101772.00
2022-08-01T02:41:49.009Z,101779.09
2022-08-01T02:44:30.026Z,101779.09
2022-08-01T02:47:03.365Z,101785.94
2022-08-01T02:49:34.186Z,101775.47
2022-08-01T02:52:05.179Z,101784.25
2022-08-01T02:54:33.533Z,101776.66
2022-08-01T02:57:02.522Z,101779.28
2022-08-01T02:59:32.873Z,101771.25
2022-08-01T03:02:03.074Z,101779.09
2022-08-01T03:04:31.058Z,101777.41
2022-08-01T03:06:59.484Z,101774.97
2022-08-01T03:09:28.543Z,101774.13
2022-08-01T03:11:58.445Z,101765.13
2022-08-01T03:14:26.421Z,101763.34
2022-08-01T03:16:55.041Z,101765.25
2022-08-01T03:19:25.411Z,101764.63
2022-08-01T03:21:53.143Z,101777.94
2022-08-01T03:24:21.061Z,101777.84
2022-08-01T03:26:49.484Z,101768.34
2022-08-01T03:29:23.891Z,101785.84
2022-08-01T03:31:51.090Z,101776.38
2022-08-01T03:34:18.679Z,101771.94
2022-08-01T03:37:11.877Z,101779.94
2022-08-01T03:39:45.692Z,101778.41
2022-08-01T03:42:20.069Z,101780.19
2022-08-01T03:44:55.687Z,101783.91
2022-08-01T03:47:30.583Z,101781.16
2022-08-01T03:49:58.831Z,101780.31
2022-08-01T03:52:28.354Z,101782.19
2022-08-01T03:54:57.225Z,101785.06
2022-08-01T03:57:35.806Z,101788.66
2022-08-01T04:00:08.113Z,101788.19
2022-08-01T04:02:35.367Z,101783.84
2022-08-01T04:05:03.516Z,101783.22
2022-08-01T04:07:33.579Z,101785.97
2022-08-01T04:10:00.259Z,101784.53
2022-08-01T04:12:26.743Z,101787.25
2022-08-01T04:14:53.219Z,101782.09
2022-08-01T04:17:19.879Z,101788.31
2022-08-01T04:19:47.096Z,101797.19
2022-08-01T04:22:15.977Z,101797.19
2022-08-01T04:24:45.741Z,101801.50
2022-08-01T04:27:20.124Z,101798.66
2022-08-01T04:30:07.781Z,101798.34
2022-08-01T04:32:38.690Z,101806.25
2022-08-01T04:35:34.857Z,101810.56
2022-08-01T04:37:58.855Z,101812.47
2022-08-01T04:40:27.232Z,101805.38
2022-08-01T04:42:54.225Z,101811.84
2022-08-01T04:45:22.603Z,101816.91
2022-08-01T04:47:50.417Z,101811.41
2022-08-01T04:50:17.937Z,101817.19
2022-08-01T04:52:44.385Z,101830.50
2022-08-01T04:55:11.423Z,101832.16
2022-08-01T04:57:41.025Z,101829.44
2022-08-01T05:00:08.451Z,101830.28
2022-08-01T05:02:35.202Z,101840.81
2022-08-01T05:05:01.693Z,101842.41
2022-08-01T05:07:28.180Z,101837.13
2022-08-01T05:09:54.767Z,101839.66
2022-08-01T05:12:21.728Z,101838.81
2022-08-01T05:14:48.169Z,101838.72
2022-08-01T05:17:14.868Z,101846.63
2022-08-01T05:19:43.865Z,101848.53
2022-08-01T05:22:11.089Z,101847.78
2022-08-01T05:24:41.301Z,101848.75
2022-08-01T05:27:11.659Z,101841.88
2022-08-01T05:29:44.366Z,101844.44
2022-08-01T05:32:11.554Z,101849.81
2022-08-01T05:34:37.989Z,101848.97
2022-08-01T05:37:04.464Z,101851.94
2022-08-01T05:39:31.176Z,101859.13
2022-08-01T05:41:57.674Z,101854.66
2022-08-01T05:44:24.184Z,101857.31
2022-08-01T05:46:50.642Z,101850.56
2022-08-01T05:49:17.201Z,101856.69
2022-08-01T05:51:43.748Z,101855.63
2022-08-01T05:54:10.365Z,101859.84
2022-08-01T05:56:36.880Z,101857.00
2022-08-01T05:59:03.845Z,101855.91
2022-08-01T06:01:30.295Z,101859.28
2022-08-01T06:03:56.793Z,101857.41
2022-08-01T06:06:25.326Z,101862.47
2022-08-01T06:08:52.842Z,101864.00
2022-08-01T06:11:19.342Z,101868.44
2022-08-01T06:13:48.718Z,101868.66
2022-08-01T06:16:16.257Z,101867.75
2022-08-01T06:18:43.006Z,101871.94
2022-08-01T06:21:09.581Z,101870.16
2022-08-01T06:23:36.226Z,101864.41
2022-08-01T06:26:02.976Z,101865.25
2022-08-01T06:28:29.570Z,101867.81
2022-08-01T06:30:56.698Z,101871.50
2022-08-01T06:33:23.249Z,101872.81
2022-08-01T06:35:49.718Z,101873.72
2022-08-01T06:38:16.207Z,101874.78
2022-08-01T06:40:42.934Z,101879.66
2022-08-01T06:43:09.439Z,101883.59
2022-08-01T06:45:37.524Z,101886.53
2022-08-01T06:48:04.520Z,101882.22
2022-08-01T06:50:31.046Z,101891.41
2022-08-01T06:52:57.513Z,101885.31
2022-08-01T06:55:24.027Z,101897.44
2022-08-01T06:57:53.528Z,101893.97
2022-08-01T07:00:23.502Z,101891.66
2022-08-01T07:02:55.604Z,101894.50
2022-08-01T07:05:23.546Z,101895.13
2022-08-01T07:07:50.421Z,101894.06
2022-08-01T07:10:17.629Z,101896.47
2022-08-01T07:12:44.093Z,101899.88
2022-08-01T07:15:12.197Z,101897.97
2022-08-01T07:17:41.056Z,101899.53
2022-08-01T07:20:16.060Z,101905.56
2022-08-01T07:22:42.869Z,101903.75
2022-08-01T07:25:09.870Z,101907.84
2022-08-01T07:27:37.526Z,101908.81
2022-08-01T07:30:06.382Z,101906.38
2022-08-01T07:32:33.117Z,101907.44
2022-08-01T07:34:59.555Z,101903.34
2022-08-01T07:37:48.652Z,101917.50
2022-08-01T07:40:13.769Z,101916.75
2022-08-01T07:42:44.253Z,101928.25
2022-08-01T07:45:11.985Z,101924.66
2022-08-01T07:47:38.733Z,101933.88
2022-08-01T07:50:06.111Z,101928.69
2022-08-01T07:52:32.661Z,101939.34
2022-08-01T07:54:59.833Z,101939.34
2022-08-01T07:57:26.537Z,101938.19
2022-08-01T07:59:53.026Z,101943.88
2022-08-01T08:02:19.567Z,101941.66
2022-08-01T08:04:49.139Z,101949.78
2022-08-01T08:07:16.072Z,101952.28
2022-08-01T08:09:42.651Z,101950.59
2022-08-01T08:12:09.764Z,101952.19
2022-08-01T08:14:37.031Z,101951.84
2022-08-01T08:17:03.780Z,101948.03
2022-08-01T08:19:37.425Z,101952.75
2022-08-01T08:22:06.735Z,101958.19
2022-08-01T08:24:33.720Z,101963.84
2022-08-01T08:27:01.343Z,101965.94
2022-08-01T08:29:30.793Z,101964.44
2022-08-01T08:31:58.410Z,101973.47
2022-08-01T08:34:26.339Z,101967.25
2022-08-01T08:36:53.801Z,101976.56
2022-08-01T08:39:20.389Z,101976.13
2022-08-01T08:41:49.057Z,101970.84
2022-08-01T08:44:17.690Z,101975.06
2022-08-01T08:46:46.719Z,101977.09
2022-08-01T08:49:18.562Z,101980.56
2022-08-01T08:51:48.090Z,101978.66
2022-08-01T08:54:15.883Z,101983.38
2022-08-01T08:56:43.332Z,101983.91
2022-08-01T08:59:12.188Z,101988.72
2022-08-01T09:01:38.844Z,101981.66
2022-08-01T09:04:05.905Z,101986.69
2022-08-01T09:06:33.524Z,101986.47
2022-08-01T09:09:00.311Z,101996.59
2022-08-01T09:11:27.600Z,101994.63
2022-08-01T09:14:10.884Z,101994.69
2022-08-01T09:16:43.235Z,101997.94
2022-08-01T09:19:40.668Z,101997.72
2022-08-01T09:22:10.426Z,102000.97
2022-08-01T09:24:40.393Z,102002.09
2022-08-01T09:27:21.649Z,102007.75
2022-08-01T09:29:49.699Z,102003.22
2022-08-01T09:32:26.255Z,102006.38
2022-08-01T09:34:52.720Z,102009.66
2022-08-01T09:37:36.995Z,102003.03
2022-08-01T09:40:04.501Z,102010.97
2022-08-01T09:42:30.926Z,102013.72
2022-08-01T09:44:57.380Z,102014.31
2022-08-01T09:47:38.795Z,102004.09
2022-08-01T09:50:10.844Z,102021.56
2022-08-01T09:52:38.141Z,102024.56
2022-08-01T09:55:08.610Z,102020.81
2022-08-01T09:57:35.269Z,102017.47
2022-08-01T10:00:02.936Z,102023.72
2022-08-01T10:02:38.238Z,102025.16
2022-08-01T10:05:10.434Z,102019.22
2022-08-01T10:07:55.629Z,102020.00
2022-08-01T10:10:28.754Z,102024.97
2022-08-01T10:12:57.622Z,102024.44
2022-08-01T10:15:36.994Z,102027.53
2022-08-01T10:18:16.190Z,102026.06
2022-08-01T10:20:47.942Z,102024.06
2022-08-01T10:23:14.998Z,102019.09
2022-08-01T10:25:47.092Z,102029.34
2022-08-01T10:28:21.713Z,102024.09
2022-08-01T10:30:53.069Z,102021.09
2022-08-01T10:33:51.417Z,102020.13
2022-08-01T10:36:10.622Z,102020.16
2022-08-01T10:38:37.784Z,102022.00
2022-08-01T10:41:06.608Z,102021.19
2022-08-01T10:43:35.549Z,102020.41
2022-08-01T10:46:03.041Z,102019.84
2022-08-01T10:48:44.119Z,102023.53
2022-08-01T10:51:18.263Z,102014.59
2022-08-01T10:53:53.907Z,102019.84
2022-08-01T10:56:27.071Z,102013.41
2022-08-01T10:59:06.263Z,102026.59
2022-08-01T11:01:38.433Z,102020.09
2022-08-01T11:04:16.407Z,102018.97
2022-08-01T11:06:50.805Z,102016.47
2022-08-01T11:09:36.412Z,102017.56
2022-08-01T11:12:13.669Z,102022.81
2022-08-01T11:14:59.638Z,102020.59
2022-08-01T11:17:49.570Z,102024.75
2022-08-01T11:21:57.092Z,102020.53
2022-08-01T11:23:49.463Z,102034.53
2022-08-01T11:26:17.769Z,102024.38
2022-08-01T11:29:10.800Z,102019.69
2022-08-01T11:31:37.514Z,102037.03
2022-08-01T11:34:04.686Z,102042.59
2022-08-01T11:36:57.634Z,102047.88
2022-08-01T11:39:19.362Z,102047.81
2022-08-01T11:41:47.445Z,102043.63
2022-08-01T11:44:16.409Z,102045.91
2022-08-01T11:46:46.965Z,102045.97
2022-08-01T11:49:36.996Z,102041.78
2022-08-01T11:52:20.738Z,102038.47
2022-08-01T11:54:55.262Z,102035.16
2022-08-01T11:57:34.070Z,102033.75
2022-08-01T12:00:08.443Z,102039.09
2022-08-01T12:02:35.788Z,102040.09
2022-08-01T12:05:12.756Z,102041.47
2022-08-01T12:07:42.538Z,102051.81
2022-08-01T12:10:12.751Z,102048.22
2022-08-01T12:12:51.062Z,102050.72
2022-08-01T12:15:19.425Z,102048.56
2022-08-01T12:17:58.594Z,102051.38
2022-08-01T12:20:31.290Z,102053.59
2022-08-01T12:23:00.950Z,102051.53
2022-08-01T12:25:27.834Z,102052.41
2022-08-01T12:27:56.450Z,102051.53
2022-08-01T12:30:25.285Z,102055.19
2022-08-01T12:32:53.791Z,102057.84
2022-08-01T12:35:25.720Z,102057.97
2022-08-01T12:37:57.035Z,102051.25
2022-08-01T12:40:26.972Z,102049.41
2022-08-01T12:42:56.187Z,102052.88
2022-08-01T12:45:26.225Z,102049.25
2022-08-01T12:47:54.585Z,102054.81
2022-08-01T12:50:23.476Z,102048.81
2022-08-01T12:52:51.442Z,102048.88
2022-08-01T12:55:23.098Z,102046.19
2022-08-01T12:57:51.976Z,102049.81
2022-08-01T13:00:26.753Z,102046.31
2022-08-01T13:03:08.306Z,102043.16
2022-08-01T13:05:44.881Z,102047.81
2022-08-01T13:08:16.800Z,102044.25
2022-08-01T13:10:44.143Z,102041.53
2022-08-01T13:13:12.027Z,102045.91
2022-08-01T13:16:06.361Z,102042.25
2022-08-01T13:18:34.447Z,102044.28
2022-08-01T13:21:16.984Z,102043.91
2022-08-01T13:24:02.784Z,102042.19
2022-08-01T13:26:41.652Z,102044.31
2022-08-01T13:29:09.997Z,102031.34
2022-08-01T13:31:37.740Z,102033.91
2022-08-01T13:34:04.695Z,102038.59
2022-08-01T13:36:32.230Z,102041.09
2022-08-01T13:39:18.619Z,102032.38
2022-08-01T13:41:46.204Z,102037.72
2022-08-01T13:44:12.760Z,102029.91
2022-08-01T13:46:49.326Z,102033.41
2022-08-01T13:49:17.719Z,102028.41
2022-08-01T13:51:46.812Z,102026.31
2022-08-01T13:54:13.545Z,102034.63
2022-08-01T13:56:40.035Z,102027.81
2022-08-01T13:59:07.568Z,102023.69
2022-08-01T14:01:34.932Z,102021.34
2022-08-01T14:04:01.986Z,102031.06
2022-08-01T14:06:28.595Z,102020.28
2022-08-01T14:08:55.397Z,102026.03
2022-08-01T14:11:22.016Z,102024.78
2022-08-01T14:13:48.526Z,102015.72
2022-08-01T14:16:15.393Z,102013.81
2022-08-01T14:18:42.138Z,102007.72
2022-08-01T14:21:10.847Z,102019.31
2022-08-01T14:23:37.381Z,102021.47
2022-08-01T14:26:09.801Z,102017.63
2022-08-01T14:28:39.346Z,102020.22
2022-08-01T14:31:09.131Z,102011.00
2022-08-01T14:33:35.738Z,102010.88
2022-08-01T14:36:28.800Z,102012.78
2022-08-01T14:38:50.234Z,102011.84
2022-08-01T14:41:16.869Z,102006.34
2022-08-01T14:43:43.600Z,102009.31
2022-08-01T14:46:11.033Z,102014.59
2022-08-01T14:48:38.032Z,102015.50
2022-08-01T14:51:05.252Z,102016.94
2022-08-01T14:53:34.441Z,102016.63
2022-08-01T14:56:04.034Z,102018.31
2022-08-01T14:58:30.626Z,102010.34
2022-08-01T15:00:59.294Z,102011.19
2022-08-01T15:03:26.517Z,102014.69
2022-08-01T15:05:53.223Z,102013.38
2022-08-01T15:08:19.751Z,102018.09
2022-08-01T15:10:46.222Z,102008.38
2022-08-01T15:13:12.694Z,102013.00
2022-08-01T15:15:39.245Z,102013.66
2022-08-01T15:18:06.015Z,102010.38
2022-08-01T15:20:33.920Z,102024.22
2022-08-01T15:23:00.759Z,102021.28
2022-08-01T15:25:41.317Z,102025.28
2022-08-01T15:28:10.482Z,102021.13
2022-08-01T15:30:37.094Z,102031.97
2022-08-01T15:33:03.652Z,102036.94
2022-08-01T15:35:30.300Z,102031.94
2022-08-01T15:37:56.902Z,102030.28
2022-08-01T15:40:23.500Z,102039.53
2022-08-01T15:42:49.985Z,102034.31
2022-08-01T15:45:44.491Z,102036.78
2022-08-01T15:48:06.114Z,102031.50
2022-08-01T15:50:32.695Z,102021.22
2022-08-01T15:52:59.272Z,102023.84
2022-08-01T15:55:25.722Z,102030.38
2022-08-01T15:57:52.227Z,102025.97
2022-08-01T16:00:18.741Z,102029.00
2022-08-01T16:02:45.475Z,102022.59
2022-08-01T16:05:11.992Z,102033.41
2022-08-01T16:07:59.912Z,102035.28
2022-08-01T16:10:25.077Z,102034.91
2022-08-01T16:12:51.577Z,102026.41
2022-08-01T16:15:18.052Z,102028.78
2022-08-01T16:17:44.867Z,102034.81
2022-08-01T16:20:11.596Z,102027.34
2022-08-01T16:22:38.069Z,102021.72
2022-08-01T16:25:05.330Z,102013.34
2022-08-01T16:27:31.918Z,102034.13
2022-08-01T16:29:58.435Z,102024.13
2022-08-01T16:32:40.297Z,102022.34
2022-08-01T16:35:09.532Z,102023.78
2022-08-01T16:37:36.259Z,102027.47
2022-08-01T16:40:03.857Z,102033.97
2022-08-01T16:42:30.401Z,102018.59
2022-08-01T16:44:56.911Z,102017.88
2022-08-01T16:47:23.375Z,102014.84
2022-08-01T16:49:50.009Z,102011.69
2022-08-01T16:52:16.738Z,102010.38
2022-08-01T16:54:43.330Z,102005.25
2022-08-01T16:57:10.310Z,102004.81
2022-08-01T16:59:41.350Z,102005.69
2022-08-01T17:02:09.511Z,102005.03
2022-08-01T17:04:36.055Z,102002.88
2022-08-01T17:07:02.603Z,102008.94
2022-08-01T17:09:29.095Z,102011.13
2022-08-01T17:11:55.530Z,102020.81
2022-08-01T17:14:21.998Z,102017.16
2022-08-01T17:16:48.522Z,102004.78
2022-08-01T17:19:15.135Z,102004.94
2022-08-01T17:21:42.131Z,102012.66
2022-08-01T17:24:08.936Z,102000.28
2022-08-01T17:26:35.435Z,102001.94
2022-08-01T17:29:01.882Z,102008.44
2022-08-01T17:31:28.365Z,102019.34
2022-08-01T17:33:55.372Z,102018.47
2022-08-01T17:36:22.221Z,102014.81
2022-08-01T17:38:48.947Z,102019.50
2022-08-01T17:41:15.502Z,102010.13
2022-08-01T17:43:42.050Z,102009.97
2022-08-01T17:46:08.881Z,102001.44
2022-08-01T17:48:35.428Z,102015.16
2022-08-01T17:51:01.913Z,102008.94
2022-08-01T17:53:28.713Z,102011.94
2022-08-01T17:55:58.584Z,102015.25
2022-08-01T17:58:49.770Z,102017.19
2022-08-01T18:01:14.482Z,102015.41
2022-08-01T18:03:41.907Z,102020.47
2022-08-01T18:06:17.545Z,102015.72
2022-08-01T18:08:46.899Z,102020.25
2022-08-01T18:11:14.992Z,102018.00
2022-08-01T18:13:41.801Z,102031.06
2022-08-01T18:16:11.120Z,102024.59
2022-08-01T18:18:38.753Z,102036.34
2022-08-01T18:21:06.307Z,102032.22
2022-08-01T18:23:34.096Z,102033.50
2022-08-01T18:26:02.466Z,102035.16
2022-08-01T18:28:35.066Z,102032.91
2022-08-01T18:31:01.982Z,102026.72
2022-08-01T18:33:28.501Z,102034.53
2022-08-01T18:36:00.649Z,102035.19
2022-08-01T18:38:30.043Z,102036.84
2022-08-01T18:40:57.285Z,102042.13
2022-08-01T18:43:23.897Z,102032.13
2022-08-01T18:45:50.468Z,102029.53
2022-08-01T18:48:16.918Z,102032.50
2022-08-01T18:50:43.458Z,102029.53
2022-08-01T18:53:10.411Z,102030.88
2022-08-01T18:55:36.845Z,102030.44
2022-08-01T18:58:03.773Z,102039.19
2022-08-01T19:00:30.515Z,102043.44
2022-08-01T19:02:57.045Z,102031.06
2022-08-01T19:05:24.052Z,102031.72
2022-08-01T19:08:06.243Z,102039.94
2022-08-01T19:10:36.032Z,102041.16
2022-08-01T19:13:03.019Z,102038.31
2022-08-01T19:15:29.807Z,102045.22
2022-08-01T19:17:56.445Z,102041.28
2022-08-01T19:20:23.162Z,102043.44
2022-08-01T19:22:49.754Z,102043.25
2022-08-01T19:25:16.568Z,102050.53
2022-08-01T19:27:46.791Z,102052.31
2022-08-01T19:30:14.428Z,102056.06
2022-08-01T19:32:43.491Z,102054.53
2022-08-01T19:35:11.880Z,102065.00
2022-08-01T19:37:48.951Z,102077.19
2022-08-01T19:40:27.547Z,102076.34
2022-08-01T19:42:56.527Z,102084.28
2022-08-01T19:45:23.442Z,102088.44
2022-08-01T19:47:57.258Z,102084.72
2022-08-01T19:50:28.798Z,102083.59
2022-08-01T19:52:57.215Z,102085.13
2022-08-01T19:55:24.225Z,102086.78
2022-08-01T19:58:16.952Z,102086.63
2022-08-01T20:00:40.073Z,102086.25
2022-08-01T20:03:08.983Z,102088.50
2022-08-01T20:05:37.114Z,102079.47
2022-08-01T20:08:05.650Z,102073.56
2022-08-01T20:10:32.234Z,102071.38
2022-08-01T20:12:58.827Z,102068.41
2022-08-01T20:15:25.797Z,102074.25
2022-08-01T20:17:52.277Z,102073.00
2022-08-01T20:20:18.799Z,102077.81
2022-08-01T20:22:48.505Z,102081.09
2022-08-01T20:25:17.480Z,102074.16
2022-08-01T20:27:44.737Z,102083.59
2022-08-01T20:30:12.328Z,102064.47
2022-08-01T20:32:40.859Z,102076.09
2022-08-01T20:35:08.071Z,102078.44
2022-08-01T20:38:05.814Z,102082.25
2022-08-01T20:40:26.840Z,102078.56
2022-08-01T20:42:55.289Z,102084.91
2022-08-01T20:45:22.196Z,102085.13
2022-08-01T20:47:50.488Z,102074.84
2022-08-01T20:50:53.156Z,102069.66
2022-08-01T20:53:22.714Z,102074.53
2022-08-01T20:55:54.112Z,102082.97
2022-08-01T20:58:32.028Z,102077.28
2022-08-01T21:01:03.041Z,102074.84
2022-08-01T21:03:41.914Z,102075.81
2022-08-01T21:06:14.734Z,102079.78
2022-08-01T21:08:43.939Z,102073.16
2022-08-01T21:11:17.016Z,102074.19
2022-08-01T21:13:49.142Z,102073.56
2022-08-01T21:16:24.076Z,102079.16
2022-08-01T21:21:50.861Z,102073.84
2022-08-01T21:24:19.282Z,102085.66
2022-08-01T21:26:46.472Z,102082.38
2022-08-01T21:29:14.070Z,102074.88
2022-08-01T21:31:41.811Z,102076.13
2022-08-01T21:34:09.556Z,102076.72
2022-08-01T21:36:36.615Z,102078.88
2022-08-01T21:39:06.041Z,102075.69
2022-08-01T21:42:01.687Z,102078.63
2022-08-01T21:44:19.906Z,102070.09
2022-08-01T21:46:48.199Z,102075.56
2022-08-01T21:49:14.822Z,102066.03
2022-08-01T21:51:51.932Z,102063.41
2022-08-01T21:54:34.822Z,102061.16
2022-08-01T21:57:04.341Z,102061.78
2022-08-01T21:59:55.831Z,102060.56
2022-08-01T22:02:41.688Z,102065.06
2022-08-01T22:05:09.679Z,102058.13
2022-08-01T22:07:44.735Z,102058.22
2022-08-01T22:10:14.124Z,102058.31
2022-08-01T22:12:40.734Z,102056.81
2022-08-01T22:15:08.390Z,102069.41
2022-08-01T22:17:35.145Z,102064.56
2022-08-01T22:20:01.787Z,102062.00
2022-08-01T22:22:51.651Z,102061.28
2022-08-01T22:25:18.015Z,102054.50
2022-08-01T22:28:08.948Z,102066.16
2022-08-01T22:30:33.608Z,102058.56
2022-08-01T22:33:07.796Z,102056.00
2022-08-01T22:35:48.361Z,102061.47
2022-08-01T22:38:17.333Z,102059.00
2022-08-01T22:40:49.700Z,102062.72
2022-08-01T22:43:26.234Z,102062.06
2022-08-01T22:46:17.242Z,102063.06
2022-08-01T22:48:55.775Z,102058.81
2022-08-01T22:51:31.670Z,102050.19
2022-08-01T22:54:11.573Z,102060.78
2022-08-01T22:56:55.669Z,102048.75
2022-08-01T22:59:49.143Z,102045.38
2022-08-01T23:02:17.253Z,102048.09
2022-08-01T23:04:47.650Z,102040.56
2022-08-01T23:07:22.268Z,102054.09
2022-08-01T23:09:54.320Z,102043.69
2022-08-01T23:12:24.517Z,102046.22
2022-08-01T23:14:56.183Z,102036.53
2022-08-01T23:17:27.275Z,102036.44
2022-08-01T23:20:00.735Z,102027.59
2022-08-01T23:22:30.216Z,102036.44
2022-08-01T23:25:04.395Z,102041.72
2022-08-01T23:27:52.068Z,102030.25
2022-08-01T23:30:25.707Z,102031.91
2022-08-01T23:32:52.414Z,102032.88
2022-08-01T23:35:19.374Z,102032.88
2022-08-01T23:37:45.891Z,102039.06
2022-08-01T23:40:12.705Z,102035.78
2022-08-01T23:42:39.428Z,102037.94
2022-08-01T23:45:06.824Z,102046.19
2022-08-01T23:47:33.486Z,102047.16
2022-08-01T23:50:00.246Z,102048.16
2022-08-01T23:52:32.033Z,102042.91
2022-08-01T23:55:00.135Z,102044.03
2022-08-01T23:57:41.375Z,102032.56
